Time,TemperatureF,DewpointF,PressureIn,WindDirection,WindDirectionDegrees,WindSpeedMPH,WindSpeedGustMPH,Humidity,HourlyPrecipIn,Conditions,Clouds,dailyrainin,SoftwareType,DateUTC
2013-06-02 00:01:00,63.1,63.1,29.92,NNE,33,0.0,0.0,100,0.00,,,1.22,VWS V13.01,2013-06-02 05:01:00,
2013-06-02 00:06:00,63.1,63.1,29.92,NNE,33,0.0,0.0,100,0.00,,,0.00,VWS V13.01,2013-06-02 05:06:00,
2013-06-02 00:11:00,62.9,62.9,29.92,NNE,33,0.0,0.0,100,0.00,,,0.00,VWS V13.01,2013-06-02 05:11:00,
2013-06-02 00:16:00,62.8,62.8,29.92,NNE,33,0.0,0.0,100,0.00,,,0.00,VWS V13.01,2013-06-02 05:16:00,
2013-06-02 00:21:00,62.6,62.6,29.92,NNE,33,0.0,0.0,100,0.00,,,0.00,VWS V13.01,2013-06-02 05:21:00,
2013-06-02 00:26:00,62.6,62.6,29.92,ENE,64,0.0,0.0,100,0.00,,,0.00,VWS V13.01,2013-06-02 05:26:00,
2013-06-02 00:30:00,62.8,62.8,29.92,ENE,64,0.0,0.0,100,0.00,,,0.00,VWS V13.01,2013-06-02 05:30:00,
2013-06-02 00:35:00,62.4,62.4,29.92,West,268,0.0,2.2,100,0.00,,,0.00,VWS V13.01,2013-06-02 05:35:00,
2013-06-02 00:40:00,62.6,62.6,29.92,West,268,0.0,0.0,100,0.00,,,0.00,VWS V13.01,2013-06-02 05:40:00,
2013-06-02 00:45:00,62.4,62.4,29.92,West,268,0.0,0.0,100,0.00,,,0.00,VWS V13.01,2013-06-02 05:45:00,
2013-06-02 00:50:00,62.2,62.2,29.92,NE,45,0.0,0.0,100,0.00,,,0.00,VWS V13.01,2013-06-02 05:50:00,
2013-06-02 00:55:00,61.9,61.9,29.92,NE,42,0.0,0.0,100,0.00,,,0.00,VWS V13.01,2013-06-02 05:55:00,
2013-06-02 01:00:00,61.9,61.9,29.92,NE,42,0.0,0.0,100,0.00,,,0.00,VWS V13.01,2013-06-02 06:00:00,
2013-06-02 01:05:00,61.7,61.7,29.92,NE,42,0.0,0.0,100,0.00,,,0.00,VWS V13.01,2013-06-02 06:05:00,
2013-06-02 01:10:00,61.5,61.5,29.92,NE,42,0.0,0.0,100,0.00,,,0.00,VWS V13.01,2013-06-02 06:10:00,
2013-06-02 01:15:00,61.5,61.5,29.95,NE,42,0.0,0.0,100,0.00,,,0.00,VWS V13.01,2013-06-02 06:15:00,
2013-06-02 01:20:00,61.3,61.3,29.95,NNE,14,0.0,0.0,100,0.00,,,0.00,VWS V13.01,2013-06-02 06:20:00,
2013-06-02 01:25:00,61.1,61.1,29.95,NNE,14,0.0,0.0,100,0.00,,,0.00,VWS V13.01,2013-06-02 06:25:00,
2013-06-02 01:30:00,61.0,61.0,29.95,NNE,14,0.0,0.0,100,0.00,,,0.00,VWS V13.01,2013-06-02 06:30:00,
2013-06-02 01:35:00,60.8,60.8,29.95,NNE,14,0.0,0.0,100,0.00,,,0.00,VWS V13.01,2013-06-02 06:35:00,
2013-06-02 01:40:00,60.6,60.6,29.95,NNE,14,0.0,0.0,100,0.00,,,0.00,VWS V13.01,2013-06-02 06:40:00,
2013-06-02 01:45:00,60.6,60.6,29.92,NNE,14,0.0,0.0,100,0.00,,,0.00,VWS V13.01,2013-06-02 06:45:00,
2013-06-02 01:50:00,60.6,60.6,29.92,SE,143,0.0,2.2,100,0.00,,,0.00,VWS V13.01,2013-06-02 06:50:00,
2013-06-02 01:55:00,60.6,60.6,29.92,SE,143,0.0,0.0,100,0.00,,,0.00,VWS V13.01,2013-06-02 06:55:00,
2013-06-02 02:00:00,60.4,60.4,29.95,SE,143,0.0,0.0,100,0.00,,,0.00,VWS V13.01,2013-06-02 07:00:00,
2013-06-02 02:05:00,60.2,60.2,29.95,SE,143,0.0,0.0,100,0.00,,,0.00,VWS V13.01,2013-06-02 07:05:00,
2013-06-02 02:10:00,60.1,60.1,29.95,SE,143,0.0,0.0,100,0.00,,,0.00,VWS V13.01,2013-06-02 07:10:00,
2013-06-02 02:15:00,60.1,60.1,29.95,SE,143,0.0,0.0,100,0.00,,,0.00,VWS V13.01,2013-06-02 07:15:00,
2013-06-02 02:20:00,59.9,59.9,29.95,South,180,0.0,0.0,100,0.00,,,0.00,VWS V13.01,2013-06-02 07:20:00,
2013-06-02 02:25:00,59.7,59.7,29.95,SW,222,0.0,0.0,100,0.00,,,0.00,VWS V13.01,2013-06-02 07:25:00,
2013-06-02 02:30:00,59.3,59.3,29.95,WNW,288,0.0,0.0,100,0.00,,,0.00,VWS V13.01,2013-06-02 07:30:00,
2013-06-02 02:35:00,59.2,59.2,29.95,NNW,339,0.0,0.0,100,0.00,,,0.00,VWS V13.01,2013-06-02 07:35:00,
2013-06-02 02:40:00,59.0,59.0,29.95,NNW,339,0.0,0.0,100,0.00,,,0.00,VWS V13.01,2013-06-02 07:40:00,
2013-06-02 02:45:00,58.8,58.8,29.95,WSW,251,0.0,0.0,100,0.00,,,0.00,VWS V13.01,2013-06-02 07:45:00,
2013-06-02 02:50:00,58.6,58.6,29.95,WSW,251,0.0,0.0,100,0.00,,,0.00,VWS V13.01,2013-06-02 07:50:00,
2013-06-02 02:55:00,58.6,58.6,29.95,WSW,251,0.0,0.0,100,0.00,,,0.00,VWS V13.01,2013-06-02 07:55:00,
2013-06-02 03:00:00,58.3,58.3,29.95,ENE,64,0.0,0.0,100,0.00,,,0.00,VWS V13.01,2013-06-02 08:00:00,
2013-06-02 03:05:00,58.1,58.1,29.95,ENE,64,0.0,0.0,100,0.00,,,0.00,VWS V13.01,2013-06-02 08:05:00,
2013-06-02 03:10:00,58.1,58.1,29.95,ENE,64,0.0,0.0,100,0.00,,,0.00,VWS V13.01,2013-06-02 08:10:00,
2013-06-02 03:15:00,57.9,57.9,29.95,ENE,64,0.0,0.0,100,0.00,,,0.00,VWS V13.01,2013-06-02 08:15:00,
2013-06-02 03:20:00,57.9,57.9,29.95,ENE,64,0.0,0.0,100,0.00,,,0.00,VWS V13.01,2013-06-02 08:20:00,
2013-06-02 03:25:00,57.7,57.7,29.95,ENE,64,0.0,0.0,100,0.00,,,0.00,VWS V13.01,2013-06-02 08:25:00,
2013-06-02 03:30:00,57.7,57.7,29.95,ENE,64,0.0,0.0,100,0.00,,,0.00,VWS V13.01,2013-06-02 08:30:00,
2013-06-02 03:35:00,57.5,57.5,29.95,ENE,64,0.0,0.0,100,0.00,,,0.00,VWS V13.01,2013-06-02 08:35:00,
2013-06-02 03:40:00,57.5,57.5,29.95,ENE,64,0.0,0.0,100,0.00,,,0.00,VWS V13.01,2013-06-02 08:40:00,
2013-06-02 03:45:00,57.4,57.4,29.95,ENE,64,0.0,0.0,100,0.00,,,0.00,VWS V13.01,2013-06-02 08:45:00,
2013-06-02 03:50:00,57.4,57.4,29.95,NE,41,0.0,0.0,100,0.00,,,0.00,VWS V13.01,2013-06-02 08:50:00,
2013-06-02 03:55:00,57.2,57.2,29.95,North,1,0.0,0.0,100,0.00,,,0.00,VWS V13.01,2013-06-02 08:55:00,
2013-06-02 04:00:00,57.0,57.0,29.95,North,1,0.0,0.0,100,0.00,,,0.00,VWS V13.01,2013-06-02 09:00:00,
2013-06-02 04:05:00,56.8,56.8,29.95,North,1,0.0,0.0,100,0.00,,,0.00,VWS V13.01,2013-06-02 09:05:00,
2013-06-02 04:10:00,56.6,56.6,29.95,North,1,0.0,0.0,100,0.00,,,0.00,VWS V13.01,2013-06-02 09:10:00,
2013-06-02 04:15:00,56.5,56.5,29.92,North,1,0.0,0.0,100,0.00,,,0.00,VWS V13.01,2013-06-02 09:15:00,
2013-06-02 04:20:00,56.5,56.5,29.92,North,1,0.0,0.0,100,0.00,,,0.00,VWS V13.01,2013-06-02 09:20:00,
2013-06-02 04:25:00,56.3,56.3,29.92,North,4,0.0,0.0,100,0.00,,,0.00,VWS V13.01,2013-06-02 09:25:00,
2013-06-02 04:30:00,56.3,56.3,29.95,North,4,0.0,0.0,100,0.00,,,0.00,VWS V13.01,2013-06-02 09:30:00,
2013-06-02 04:35:00,56.1,56.1,29.95,North,4,0.0,0.0,100,0.00,,,0.00,VWS V13.01,2013-06-02 09:35:00,
2013-06-02 04:40:00,56.1,56.1,29.95,ESE,122,2.2,3.1,100,0.00,,,0.00,VWS V13.01,2013-06-02 09:40:00,
2013-06-02 04:45:00,56.1,56.1,29.95,South,169,0.0,0.0,100,0.00,,,0.00,VWS V13.01,2013-06-02 09:45:00,
2013-06-02 04:50:00,56.3,56.3,29.95,South,190,0.0,0.0,100,0.00,,,0.00,VWS V13.01,2013-06-02 09:50:00,
2013-06-02 04:55:00,56.3,56.3,29.95,South,190,0.0,0.0,100,0.00,,,0.00,VWS V13.01,2013-06-02 09:55:00,
2013-06-02 05:00:00,56.3,56.3,29.95,South,190,0.0,0.0,100,0.00,,,0.00,VWS V13.01,2013-06-02 10:00:00,
2013-06-02 05:05:00,56.3,56.3,29.95,WSW,249,0.0,0.0,100,0.00,,,0.00,VWS V13.01,2013-06-02 10:05:00,
2013-06-02 05:10:00,56.1,56.1,29.95,WSW,249,0.0,0.0,100,0.00,,,0.00,VWS V13.01,2013-06-02 10:10:00,
2013-06-02 05:15:00,55.9,55.9,29.95,West,278,0.0,0.0,100,0.00,,,0.00,VWS V13.01,2013-06-02 10:15:00,
2013-06-02 05:20:00,55.7,55.7,29.95,WSW,253,0.0,0.0,100,0.00,,,0.00,VWS V13.01,2013-06-02 10:20:00,
2013-06-02 05:25:00,55.6,55.6,29.95,WSW,255,0.0,0.0,100,0.00,,,0.00,VWS V13.01,2013-06-02 10:25:00,
2013-06-02 05:30:00,55.7,55.7,29.95,WSW,255,0.0,0.0,100,0.00,,,0.00,VWS V13.01,2013-06-02 10:30:00,
2013-06-02 05:35:00,55.6,55.6,29.95,NW,318,0.0,0.0,100,0.00,,,0.00,VWS V13.01,2013-06-02 10:35:00,
2013-06-02 05:40:00,55.4,55.4,29.95,NW,318,0.0,0.0,100,0.00,,,0.00,VWS V13.01,2013-06-02 10:40:00,
2013-06-02 05:45:00,55.2,55.2,29.95,NW,318,0.0,0.0,100,0.00,,,0.00,VWS V13.01,2013-06-02 10:45:00,
2013-06-02 05:50:00,55.0,55.0,29.95,NW,318,0.0,0.0,100,0.00,,,0.00,VWS V13.01,2013-06-02 10:50:00,
2013-06-02 05:55:00,54.8,54.8,29.95,NW,318,0.0,0.0,100,0.00,,,0.00,VWS V13.01,2013-06-02 10:55:00,
2013-06-02 06:00:00,55.0,55.0,29.95,NW,318,0.0,0.0,100,0.00,,,0.00,VWS V13.01,2013-06-02 11:00:00,
2013-06-02 06:05:00,54.8,54.8,29.95,NW,318,0.0,0.0,100,0.00,,,0.00,VWS V13.01,2013-06-02 11:05:00,
2013-06-02 06:10:00,55.0,55.0,29.95,NW,318,0.0,0.0,100,0.00,,,0.00,VWS V13.01,2013-06-02 11:10:00,
2013-06-02 06:15:00,55.0,55.0,29.95,NW,318,0.0,0.0,100,0.00,,,0.00,VWS V13.01,2013-06-02 11:15:00,
2013-06-02 06:20:00,55.0,55.0,29.95,NW,318,0.0,0.0,100,0.00,,,0.00,VWS V13.01,2013-06-02 11:20:00,
2013-06-02 06:25:00,54.8,54.8,29.95,NW,318,0.0,0.0,100,0.00,,,0.00,VWS V13.01,2013-06-02 11:25:00,
2013-06-02 06:29:00,54.8,54.8,29.95,NW,318,0.0,0.0,100,0.00,,,0.00,VWS V13.01,2013-06-02 11:29:00,
2013-06-02 06:34:00,54.8,54.8,29.95,NW,318,0.0,0.0,100,0.00,,,0.00,VWS V13.01,2013-06-02 11:34:00,
2013-06-02 06:39:00,55.0,55.0,29.95,NW,318,0.0,0.0,100,0.00,,,0.00,VWS V13.01,2013-06-02 11:39:00,
2013-06-02 06:44:00,55.2,55.2,29.95,NW,318,0.0,0.0,100,0.00,,,0.00,VWS V13.01,2013-06-02 11:44:00,
2013-06-02 06:49:00,55.2,55.2,29.95,NW,318,0.0,0.0,100,0.00,,,0.00,VWS V13.01,2013-06-02 11:49:00,
2013-06-02 06:54:00,55.4,55.4,29.95,NW,318,0.0,0.0,100,0.00,,,0.00,VWS V13.01,2013-06-02 11:54:00,
2013-06-02 06:59:00,55.7,55.7,29.95,NW,318,0.0,0.0,100,0.00,,,0.00,VWS V13.01,2013-06-02 11:59:00,
2013-06-02 07:04:00,56.1,56.1,29.95,NW,318,0.0,0.0,100,0.00,,,0.00,VWS V13.01,2013-06-02 12:04:00,
2013-06-02 07:09:00,57.0,57.0,29.95,NW,318,0.0,0.0,100,0.00,,,0.00,VWS V13.01,2013-06-02 12:09:00,
2013-06-02 07:14:00,57.2,57.2,29.95,NW,318,0.0,0.0,100,0.00,,,0.00,VWS V13.01,2013-06-02 12:14:00,
2013-06-02 07:19:00,57.2,57.2,29.95,NW,318,0.0,0.0,100,0.00,,,0.00,VWS V13.01,2013-06-02 12:19:00,
2013-06-02 07:24:00,57.2,57.2,29.95,NW,318,0.0,0.0,100,0.00,,,0.00,VWS V13.01,2013-06-02 12:24:00,
2013-06-02 07:29:00,57.4,57.4,29.95,WSW,256,0.0,0.0,100,0.00,,,0.00,VWS V13.01,2013-06-02 12:29:00,
2013-06-02 07:34:00,57.7,57.7,29.95,WSW,256,0.0,0.0,100,0.00,,,0.00,VWS V13.01,2013-06-02 12:34:00,
2013-06-02 07:39:00,58.1,58.1,29.95,SW,228,2.2,3.1,100,0.00,,,0.00,VWS V13.01,2013-06-02 12:39:00,
2013-06-02 07:44:00,58.4,58.4,29.98,WSW,243,3.1,3.1,100,0.00,,,0.00,VWS V13.01,2013-06-02 12:44:00,
2013-06-02 07:49:00,58.6,58.6,29.98,WSW,243,0.0,0.0,100,0.00,,,0.00,VWS V13.01,2013-06-02 12:49:00,
2013-06-02 07:54:00,59.2,59.2,29.98,WSW,243,0.0,0.0,100,0.00,,,0.00,VWS V13.01,2013-06-02 12:54:00,
2013-06-02 07:59:00,59.5,59.5,29.98,WSW,243,0.0,0.0,100,0.00,,,0.00,VWS V13.01,2013-06-02 12:59:00,
2013-06-02 08:04:00,59.9,59.9,29.98,WSW,250,0.0,0.0,100,0.00,,,0.00,VWS V13.01,2013-06-02 13:04:00,
2013-06-02 08:09:00,60.2,60.2,29.98,West,264,0.0,0.0,100,0.00,,,0.00,VWS V13.01,2013-06-02 13:09:00,
2013-06-02 08:14:00,60.8,60.8,29.98,SW,233,0.0,0.0,100,0.00,,,0.00,VWS V13.01,2013-06-02 13:14:00,
2013-06-02 08:19:00,61.3,61.3,29.98,WSW,250,0.0,0.0,100,0.00,,,0.00,VWS V13.01,2013-06-02 13:19:00,
2013-06-02 08:24:00,61.9,61.9,29.98,SW,223,0.0,0.0,100,0.00,,,0.00,VWS V13.01,2013-06-02 13:24:00,
2013-06-02 08:29:00,62.2,62.2,29.95,SW,228,0.0,0.0,100,0.00,,,0.00,VWS V13.01,2013-06-02 13:29:00,
2013-06-02 08:34:00,62.2,62.2,29.95,West,264,2.7,3.6,100,0.00,,,0.00,VWS V13.01,2013-06-02 13:34:00,
2013-06-02 08:39:00,62.8,60.4,29.95,WSW,258,2.2,2.7,92,0.00,,,0.00,VWS V13.01,2013-06-02 13:39:00,
2013-06-02 08:44:00,63.7,56.3,29.98,SW,223,3.1,3.1,77,0.00,,,0.00,VWS V13.01,2013-06-02 13:44:00,
2013-06-02 08:49:00,64.4,57.4,29.98,South,170,0.0,0.0,78,0.00,,,0.00,VWS V13.01,2013-06-02 13:49:00,
2013-06-02 08:54:00,64.7,58.4,29.98,WSW,246,0.0,0.0,80,0.00,,,0.00,VWS V13.01,2013-06-02 13:54:00,
2013-06-02 08:59:00,64.9,56.8,29.98,SW,226,0.0,2.2,75,0.00,,,0.00,VWS V13.01,2013-06-02 13:59:00,
2013-06-02 09:04:00,65.3,57.2,29.98,South,174,0.0,0.0,75,0.00,,,0.00,VWS V13.01,2013-06-02 14:04:00,
2013-06-02 09:09:00,65.8,56.9,29.98,SSW,207,2.7,4.0,73,0.00,,,0.00,VWS V13.01,2013-06-02 14:09:00,
2013-06-02 09:14:00,66.0,56.0,29.98,South,175,5.8,5.8,70,0.00,,,0.00,VWS V13.01,2013-06-02 14:14:00,
2013-06-02 09:19:00,66.0,55.5,29.98,South,177,4.0,4.0,69,0.00,,,0.00,VWS V13.01,2013-06-02 14:19:00,
2013-06-02 09:24:00,66.0,53.9,29.98,South,169,4.5,5.8,65,0.00,,,0.00,VWS V13.01,2013-06-02 14:24:00,
2013-06-02 09:29:00,66.2,54.5,29.98,South,182,4.0,4.0,66,0.00,,,0.00,VWS V13.01,2013-06-02 14:29:00,
2013-06-02 09:34:00,66.4,54.7,29.98,WSW,250,2.7,4.0,66,0.00,,,0.00,VWS V13.01,2013-06-02 14:34:00,
2013-06-02 09:39:00,66.5,54.4,29.98,ESE,120,2.2,2.7,65,0.00,,,0.00,VWS V13.01,2013-06-02 14:39:00,
2013-06-02 09:44:00,66.9,55.6,29.98,WSW,238,3.6,4.0,67,0.00,,,0.00,VWS V13.01,2013-06-02 14:44:00,
2013-06-02 09:49:00,67.3,55.5,29.98,SW,233,4.9,4.9,66,0.00,,,0.00,VWS V13.01,2013-06-02 14:49:00,
2013-06-02 09:54:00,67.4,55.3,29.98,WSW,249,3.6,3.6,65,0.00,,,0.00,VWS V13.01,2013-06-02 14:54:00,
2013-06-02 09:59:00,67.6,54.6,29.98,West,278,3.1,3.6,63,0.00,,,0.00,VWS V13.01,2013-06-02 14:59:00,
2013-06-02 10:04:00,67.8,54.8,29.98,WSW,253,5.8,5.8,63,0.00,,,0.00,VWS V13.01,2013-06-02 15:04:00,
2013-06-02 10:09:00,67.8,53.4,29.98,SW,235,3.1,3.1,60,0.00,,,0.00,VWS V13.01,2013-06-02 15:09:00,
2013-06-02 10:14:00,68.0,54.5,29.98,West,266,5.4,5.4,62,0.00,,,0.00,VWS V13.01,2013-06-02 15:14:00,
2013-06-02 10:19:00,68.2,55.1,29.98,WSW,243,4.9,6.3,63,0.00,,,0.00,VWS V13.01,2013-06-02 15:19:00,
2013-06-02 10:24:00,68.5,55.0,29.98,West,280,5.4,5.4,62,0.00,,,0.00,VWS V13.01,2013-06-02 15:24:00,
2013-06-02 10:29:00,68.9,54.4,29.98,SSW,210,7.6,7.6,60,0.00,,,0.00,VWS V13.01,2013-06-02 15:29:00,
2013-06-02 10:34:00,68.9,54.0,29.98,SW,228,3.6,5.4,59,0.00,,,0.00,VWS V13.01,2013-06-02 15:34:00,
2013-06-02 10:39:00,69.1,54.6,29.98,WSW,238,5.4,6.3,60,0.00,,,0.00,VWS V13.01,2013-06-02 15:39:00,
2013-06-02 10:44:00,69.4,54.5,29.98,SW,234,5.4,5.8,59,0.00,,,0.00,VWS V13.01,2013-06-02 15:44:00,
2013-06-02 10:49:00,69.4,54.5,29.98,SW,219,8.3,8.3,59,0.00,,,0.00,VWS V13.01,2013-06-02 15:49:00,
2013-06-02 10:54:00,69.2,55.2,29.98,West,267,3.6,4.0,61,0.00,,,0.00,VWS V13.01,2013-06-02 15:54:00,
2013-06-02 10:59:00,69.8,54.3,29.98,WSW,257,2.7,5.4,58,0.00,,,0.00,VWS V13.01,2013-06-02 15:59:00,
2013-06-02 11:04:00,70.5,53.1,29.98,NW,310,3.1,4.0,54,0.00,,,0.00,VWS V13.01,2013-06-02 16:04:00,
2013-06-02 11:09:00,70.9,53.4,29.98,NW,310,3.1,3.1,54,0.00,,,0.00,VWS V13.01,2013-06-02 16:09:00,
2013-06-02 11:14:00,71.0,54.6,29.98,WNW,290,3.1,6.3,56,0.00,,,0.00,VWS V13.01,2013-06-02 16:14:00,
2013-06-02 11:19:00,71.6,53.6,29.98,West,262,8.1,8.1,53,0.00,,,0.00,VWS V13.01,2013-06-02 16:19:00,
2013-06-02 11:24:00,71.0,54.1,29.98,WSW,247,5.8,5.8,55,0.00,,,0.00,VWS V13.01,2013-06-02 16:24:00,
2013-06-02 11:29:00,70.3,52.9,29.98,West,275,3.6,4.9,54,0.00,,,0.00,VWS V13.01,2013-06-02 16:29:00,
2013-06-02 11:34:00,70.3,53.4,29.98,WSW,258,5.8,8.1,55,0.00,,,0.00,VWS V13.01,2013-06-02 16:34:00,
2013-06-02 11:39:00,70.0,53.6,29.98,WSW,251,4.0,5.8,56,0.00,,,0.00,VWS V13.01,2013-06-02 16:39:00,
2013-06-02 11:44:00,70.0,52.6,29.98,West,267,5.4,7.6,54,0.00,,,0.00,VWS V13.01,2013-06-02 16:44:00,
2013-06-02 11:49:00,69.6,54.7,29.98,West,273,5.4,5.4,59,0.00,,,0.00,VWS V13.01,2013-06-02 16:49:00,
2013-06-02 11:54:00,69.6,53.7,29.98,WSW,251,3.6,4.5,57,0.00,,,0.00,VWS V13.01,2013-06-02 16:54:00,
2013-06-02 11:59:00,69.4,54.0,29.98,WSW,248,5.4,6.3,58,0.00,,,0.00,VWS V13.01,2013-06-02 16:59:00,
2013-06-02 12:04:00,69.4,53.1,29.98,WSW,240,3.6,5.8,56,0.00,,,0.00,VWS V13.01,2013-06-02 17:04:00,
2013-06-02 12:09:00,69.6,53.7,29.98,SW,226,5.4,5.8,57,0.00,,,0.00,VWS V13.01,2013-06-02 17:09:00,
2013-06-02 12:14:00,69.8,53.4,29.98,WNW,301,2.7,3.1,56,0.00,,,0.00,VWS V13.01,2013-06-02 17:14:00,
2013-06-02 12:19:00,70.0,53.1,29.98,SW,228,4.9,5.4,55,0.00,,,0.00,VWS V13.01,2013-06-02 17:19:00,
2013-06-02 12:23:00,69.8,52.9,29.98,WNW,287,6.3,6.3,55,0.00,,,0.00,VWS V13.01,2013-06-02 17:23:00,
2013-06-02 12:28:00,70.0,54.0,29.98,West,272,5.4,5.4,57,0.00,,,0.00,VWS V13.01,2013-06-02 17:28:00,
2013-06-02 12:33:00,70.1,54.2,29.98,SW,225,3.6,4.9,57,0.00,,,0.00,VWS V13.01,2013-06-02 17:33:00,
2013-06-02 12:38:00,70.1,53.2,29.98,SSW,210,3.1,4.9,55,0.00,,,0.00,VWS V13.01,2013-06-02 17:38:00,
2013-06-02 12:43:00,70.9,56.3,29.98,WSW,245,4.9,4.9,60,0.00,,,0.00,VWS V13.01,2013-06-02 17:43:00,
2013-06-02 12:48:00,71.0,53.6,29.98,SW,235,2.7,3.6,54,0.00,,,0.00,VWS V13.01,2013-06-02 17:48:00,
2013-06-02 12:53:00,70.9,54.4,29.98,WSW,252,6.3,6.3,56,0.00,,,0.00,VWS V13.01,2013-06-02 17:53:00,
2013-06-02 12:58:00,70.7,54.7,29.98,West,268,4.0,4.9,57,0.00,,,0.00,VWS V13.01,2013-06-02 17:58:00,
2013-06-02 13:03:00,70.5,53.6,29.98,West,264,4.0,4.9,55,0.00,,,0.00,VWS V13.01,2013-06-02 18:03:00,
2013-06-02 13:08:00,70.9,53.9,29.98,NW,310,3.1,4.0,55,0.00,,,0.00,VWS V13.01,2013-06-02 18:08:00,
2013-06-02 13:13:00,71.6,53.6,29.98,WSW,252,4.9,5.8,53,0.00,,,0.00,VWS V13.01,2013-06-02 18:13:00,
2013-06-02 13:18:00,71.4,53.4,29.98,West,269,2.7,8.1,53,0.00,,,0.00,VWS V13.01,2013-06-02 18:18:00,
2013-06-02 13:23:00,72.3,54.2,29.98,WSW,247,5.8,8.7,53,0.00,,,0.00,VWS V13.01,2013-06-02 18:23:00,
2013-06-02 13:28:00,72.1,53.5,29.98,NW,309,6.3,6.3,52,0.00,,,0.00,VWS V13.01,2013-06-02 18:28:00,
2013-06-02 13:33:00,72.3,54.2,29.98,NW,319,3.1,3.6,53,0.00,,,0.00,VWS V13.01,2013-06-02 18:33:00,
2013-06-02 13:38:00,72.3,53.7,29.98,NW,310,5.4,8.1,52,0.00,,,0.00,VWS V13.01,2013-06-02 18:38:00,
2013-06-02 13:43:00,72.3,54.2,29.98,WSW,258,4.9,4.9,53,0.00,,,0.00,VWS V13.01,2013-06-02 18:43:00,
2013-06-02 13:48:00,72.8,54.2,29.98,NE,44,4.9,5.4,52,0.00,,,0.00,VWS V13.01,2013-06-02 18:48:00,
2013-06-02 13:53:00,72.8,54.2,29.98,NW,309,8.3,8.3,52,0.00,,,0.00,VWS V13.01,2013-06-02 18:53:00,
2013-06-02 13:58:00,72.5,54.4,29.98,WSW,247,5.4,7.6,53,0.00,,,0.00,VWS V13.01,2013-06-02 18:58:00,
2013-06-02 14:03:00,71.9,53.9,29.98,West,271,5.4,7.6,53,0.00,,,0.00,VWS V13.01,2013-06-02 19:03:00,
2013-06-02 14:08:00,72.1,54.1,29.98,NNW,347,4.0,4.0,53,0.00,,,0.00,VWS V13.01,2013-06-02 19:08:00,
2013-06-02 14:13:00,71.9,53.9,29.98,NW,308,4.0,4.0,53,0.00,,,0.00,VWS V13.01,2013-06-02 19:13:00,
2013-06-02 14:18:00,72.7,55.1,29.98,West,259,4.9,6.3,54,0.00,,,0.00,VWS V13.01,2013-06-02 19:18:00,
2013-06-02 14:23:00,72.3,54.7,29.98,West,262,5.8,7.6,54,0.00,,,0.00,VWS V13.01,2013-06-02 19:23:00,
2013-06-02 14:28:00,71.9,54.4,29.98,NW,308,4.9,4.9,54,0.00,,,0.00,VWS V13.01,2013-06-02 19:28:00,
2013-06-02 14:33:00,71.9,53.9,29.98,WNW,296,5.8,7.6,53,0.00,,,0.00,VWS V13.01,2013-06-02 19:33:00,
2013-06-02 14:38:00,72.1,56.1,29.98,West,259,5.8,5.8,57,0.00,,,0.00,VWS V13.01,2013-06-02 19:38:00,
2013-06-02 14:43:00,72.3,54.7,29.98,NW,309,5.4,6.3,54,0.00,,,0.00,VWS V13.01,2013-06-02 19:43:00,
2013-06-02 14:48:00,72.3,54.7,29.98,NW,324,2.7,2.7,54,0.00,,,0.00,VWS V13.01,2013-06-02 19:48:00,
2013-06-02 14:53:00,73.2,55.1,29.98,WNW,300,2.7,3.6,53,0.00,,,0.00,VWS V13.01,2013-06-02 19:53:00,
2013-06-02 14:58:00,73.6,55.9,29.98,West,266,3.6,4.0,54,0.00,,,0.00,VWS V13.01,2013-06-02 19:58:00,
2013-06-02 15:03:00,72.8,55.2,29.98,WNW,287,4.9,5.4,54,0.00,,,0.00,VWS V13.01,2013-06-02 20:03:00,
2013-06-02 15:08:00,73.0,55.9,29.98,North,10,5.4,5.4,55,0.00,,,0.00,VWS V13.01,2013-06-02 20:08:00,
2013-06-02 15:13:00,73.2,54.5,29.98,NNE,14,5.4,5.4,52,0.00,,,0.00,VWS V13.01,2013-06-02 20:13:00,
2013-06-02 15:18:00,72.8,54.7,29.95,WNW,299,3.1,4.0,53,0.00,,,0.00,VWS V13.01,2013-06-02 20:18:00,
2013-06-02 15:23:00,72.8,55.2,29.95,NW,308,5.4,5.4,54,0.00,,,0.00,VWS V13.01,2013-06-02 20:23:00,
2013-06-02 15:28:00,72.8,55.8,29.95,NW,326,3.1,3.6,55,0.00,,,0.00,VWS V13.01,2013-06-02 20:28:00,
2013-06-02 15:33:00,73.4,55.2,29.98,NW,323,3.6,3.6,53,0.00,,,0.00,VWS V13.01,2013-06-02 20:33:00,
2013-06-02 15:38:00,73.4,54.7,29.98,North,8,4.0,4.0,52,0.00,,,0.00,VWS V13.01,2013-06-02 20:38:00,
2013-06-02 15:43:00,73.7,55.6,29.98,NNE,32,5.8,5.8,53,0.00,,,0.00,VWS V13.01,2013-06-02 20:43:00,
2013-06-02 15:48:00,73.7,55.6,29.98,WNW,288,4.0,4.0,53,0.00,,,0.00,VWS V13.01,2013-06-02 20:48:00,
2013-06-02 15:53:00,74.1,55.4,29.98,NW,317,2.2,2.7,52,0.00,,,0.00,VWS V13.01,2013-06-02 20:53:00,
2013-06-02 15:58:00,74.5,55.2,29.98,NNE,20,6.7,6.7,51,0.00,,,0.00,VWS V13.01,2013-06-02 20:58:00,
2013-06-02 16:03:00,73.6,54.3,29.95,WNW,287,5.4,5.8,51,0.00,,,0.00,VWS V13.01,2013-06-02 21:03:00,
2013-06-02 16:08:00,73.0,53.8,29.95,WSW,252,8.7,8.7,51,0.00,,,0.00,VWS V13.01,2013-06-02 21:08:00,
2013-06-02 16:13:00,73.2,54.0,29.95,NW,311,2.7,2.7,51,0.00,,,0.00,VWS V13.01,2013-06-02 21:13:00,
2013-06-02 16:18:00,74.1,54.8,29.95,NW,326,4.0,4.5,51,0.00,,,0.00,VWS V13.01,2013-06-02 21:18:00,
2013-06-02 16:23:00,74.5,55.2,29.95,North,7,3.1,3.1,51,0.00,,,0.00,VWS V13.01,2013-06-02 21:23:00,
2013-06-02 16:28:00,74.5,55.7,29.95,NNW,333,3.6,3.6,52,0.00,,,0.00,VWS V13.01,2013-06-02 21:28:00,
2013-06-02 16:33:00,73.7,54.5,29.95,NW,321,10.1,10.1,51,0.00,,,0.00,VWS V13.01,2013-06-02 21:33:00,
2013-06-02 16:38:00,73.4,54.7,29.95,NW,304,4.0,5.4,52,0.00,,,0.00,VWS V13.01,2013-06-02 21:38:00,
2013-06-02 16:43:00,74.3,55.0,29.95,NNW,348,4.0,4.9,51,0.00,,,0.00,VWS V13.01,2013-06-02 21:43:00,
2013-06-02 16:48:00,74.6,55.3,29.95,NW,324,4.5,5.8,51,0.00,,,0.00,VWS V13.01,2013-06-02 21:48:00,
2013-06-02 16:53:00,75.0,55.7,29.95,NNW,348,6.3,6.3,51,0.00,,,0.00,VWS V13.01,2013-06-02 21:53:00,
2013-06-02 16:58:00,74.8,55.5,29.95,North,349,4.0,4.0,51,0.00,,,0.00,VWS V13.01,2013-06-02 21:58:00,
2013-06-02 17:03:00,74.6,55.3,29.95,North,4,4.0,4.0,51,0.00,,,0.00,VWS V13.01,2013-06-02 22:03:00,
2013-06-02 17:08:00,75.2,55.3,29.95,NW,305,7.6,7.6,50,0.00,,,0.00,VWS V13.01,2013-06-02 22:08:00,
2013-06-02 17:13:00,74.1,54.8,29.95,NW,321,6.3,8.1,51,0.00,,,0.00,VWS V13.01,2013-06-02 22:13:00,
2013-06-02 17:18:00,73.4,54.2,29.95,NW,314,6.3,8.1,51,0.00,,,0.00,VWS V13.01,2013-06-02 22:18:00,
2013-06-02 17:23:00,73.4,54.7,29.95,NNW,328,3.1,5.4,52,0.00,,,0.00,VWS V13.01,2013-06-02 22:23:00,
2013-06-02 17:28:00,73.7,55.0,29.95,NW,314,4.0,5.4,52,0.00,,,0.00,VWS V13.01,2013-06-02 22:28:00,
2013-06-02 17:33:00,73.2,54.5,29.92,North,2,2.7,4.9,52,0.00,,,0.00,VWS V13.01,2013-06-02 22:33:00,
2013-06-02 17:38:00,73.4,55.2,29.92,NNE,23,3.1,3.1,53,0.00,,,0.00,VWS V13.01,2013-06-02 22:38:00,
2013-06-02 17:43:00,73.6,54.9,29.92,NNE,25,4.0,4.0,52,0.00,,,0.00,VWS V13.01,2013-06-02 22:43:00,
2013-06-02 17:48:00,73.6,54.9,29.95,NNW,327,0.0,2.2,52,0.00,,,0.00,VWS V13.01,2013-06-02 22:48:00,
2013-06-02 17:53:00,73.0,53.8,29.95,WNW,295,5.4,5.4,51,0.00,,,0.00,VWS V13.01,2013-06-02 22:53:00,
2013-06-02 17:58:00,72.7,54.0,29.95,WNW,300,3.6,3.6,52,0.00,,,0.00,VWS V13.01,2013-06-02 22:58:00,
2013-06-02 18:03:00,72.7,54.0,29.95,NW,305,4.0,4.0,52,0.00,,,0.00,VWS V13.01,2013-06-02 23:03:00,
2013-06-02 18:07:00,73.0,54.4,29.95,NW,312,3.1,3.6,52,0.00,,,0.00,VWS V13.01,2013-06-02 23:07:00,
2013-06-02 18:12:00,72.8,54.2,29.95,NW,325,3.6,5.4,52,0.00,,,0.00,VWS V13.01,2013-06-02 23:12:00,
2013-06-02 18:17:00,72.8,54.2,29.95,North,352,3.1,4.0,52,0.00,,,0.00,VWS V13.01,2013-06-02 23:17:00,
2013-06-02 18:22:00,73.4,54.2,29.95,North,355,4.0,4.0,51,0.00,,,0.00,VWS V13.01,2013-06-02 23:22:00,
2013-06-02 18:27:00,73.4,54.2,29.95,NW,317,5.8,5.8,51,0.00,,,0.00,VWS V13.01,2013-06-02 23:27:00,
2013-06-02 18:32:00,72.8,54.2,29.92,NNW,339,5.4,5.8,52,0.00,,,0.00,VWS V13.01,2013-06-02 23:32:00,
2013-06-02 18:37:00,72.7,54.0,29.92,North,4,3.6,3.6,52,0.00,,,0.00,VWS V13.01,2013-06-02 23:37:00,
2013-06-02 18:42:00,72.5,53.9,29.92,NW,316,2.7,4.9,52,0.00,,,0.00,VWS V13.01,2013-06-02 23:42:00,
2013-06-02 18:47:00,72.3,54.2,29.92,NNW,348,2.7,3.6,53,0.00,,,0.00,VWS V13.01,2013-06-02 23:47:00,
2013-06-02 18:52:00,72.7,54.6,29.92,NW,323,4.0,4.0,53,0.00,,,0.00,VWS V13.01,2013-06-02 23:52:00,
2013-06-02 18:57:00,72.1,54.1,29.92,NW,320,3.6,5.4,53,0.00,,,0.00,VWS V13.01,2013-06-02 23:57:00,
2013-06-02 19:02:00,71.8,53.7,29.95,NW,321,3.6,5.8,53,0.00,,,0.00,VWS V13.01,2013-06-03 00:02:00,
2013-06-02 19:07:00,71.6,53.0,29.95,NNW,336,4.0,5.8,52,0.00,,,0.00,VWS V13.01,2013-06-03 00:07:00,
2013-06-02 19:12:00,71.4,53.4,29.95,NNW,330,5.8,5.8,53,0.00,,,0.00,VWS V13.01,2013-06-03 00:12:00,
2013-06-02 19:17:00,71.0,53.6,29.95,NW,321,3.1,4.9,54,0.00,,,0.00,VWS V13.01,2013-06-03 00:17:00,
2013-06-02 19:22:00,70.9,53.9,29.95,NNW,327,3.1,4.0,55,0.00,,,0.00,VWS V13.01,2013-06-03 00:22:00,
2013-06-02 19:27:00,70.5,53.6,29.95,WNW,298,4.9,4.9,55,0.00,,,0.00,VWS V13.01,2013-06-03 00:27:00,
2013-06-02 19:32:00,70.1,53.7,29.95,NW,323,2.7,2.7,56,0.00,,,0.00,VWS V13.01,2013-06-03 00:32:00,
2013-06-02 19:37:00,70.1,54.2,29.95,NNW,347,2.7,3.1,57,0.00,,,0.00,VWS V13.01,2013-06-03 00:37:00,
2013-06-02 19:42:00,70.1,54.2,29.95,North,353,2.2,2.7,57,0.00,,,0.00,VWS V13.01,2013-06-03 00:42:00,
2013-06-02 19:47:00,70.0,54.0,29.95,NE,37,2.2,2.2,57,0.00,,,0.00,VWS V13.01,2013-06-03 00:47:00,
2013-06-02 19:52:00,69.8,53.9,29.95,WNW,303,4.0,6.3,57,0.00,,,0.00,VWS V13.01,2013-06-03 00:52:00,
2013-06-02 19:57:00,69.4,54.5,29.95,North,349,2.2,2.2,59,0.00,,,0.00,VWS V13.01,2013-06-03 00:57:00,
2013-06-02 20:02:00,69.1,54.2,29.95,NW,307,2.2,2.7,59,0.00,,,0.00,VWS V13.01,2013-06-03 01:02:00,
2013-06-02 20:07:00,68.7,53.8,29.95,NNW,347,0.0,2.7,59,0.00,,,0.00,VWS V13.01,2013-06-03 01:07:00,
2013-06-02 20:12:00,68.3,53.9,29.95,NNW,348,0.0,0.0,60,0.00,,,0.00,VWS V13.01,2013-06-03 01:12:00,
2013-06-02 20:17:00,67.6,54.2,29.95,North,11,2.7,2.7,62,0.00,,,0.00,VWS V13.01,2013-06-03 01:17:00,
2013-06-02 20:22:00,66.9,53.9,29.95,North,11,0.0,0.0,63,0.00,,,0.00,VWS V13.01,2013-06-03 01:22:00,
2013-06-02 20:27:00,66.2,53.2,29.95,North,11,0.0,0.0,63,0.00,,,0.00,VWS V13.01,2013-06-03 01:27:00,
2013-06-02 20:32:00,65.6,53.6,29.95,North,11,0.0,0.0,65,0.00,,,0.00,VWS V13.01,2013-06-03 01:32:00,
2013-06-02 20:37:00,65.3,53.6,29.95,NNE,23,0.0,0.0,66,0.00,,,0.00,VWS V13.01,2013-06-03 01:37:00,
2013-06-02 20:42:00,65.1,53.9,29.95,NNE,23,0.0,0.0,67,0.00,,,0.00,VWS V13.01,2013-06-03 01:42:00,
2013-06-02 20:47:00,65.3,54.1,29.95,NNE,23,0.0,0.0,67,0.00,,,0.00,VWS V13.01,2013-06-03 01:47:00,
2013-06-02 20:52:00,65.1,53.9,29.95,North,3,0.0,0.0,67,0.00,,,0.00,VWS V13.01,2013-06-03 01:52:00,
2013-06-02 20:57:00,64.9,54.1,29.95,North,1,0.0,0.0,68,0.00,,,0.00,VWS V13.01,2013-06-03 01:57:00,
2013-06-02 21:02:00,64.6,54.2,29.95,NE,34,0.0,0.0,69,0.00,,,0.00,VWS V13.01,2013-06-03 02:02:00,
2013-06-02 21:07:00,64.2,53.8,29.95,NE,34,0.0,0.0,69,0.00,,,0.00,VWS V13.01,2013-06-03 02:07:00,
2013-06-02 21:12:00,63.7,53.7,29.95,NE,34,0.0,0.0,70,0.00,,,0.00,VWS V13.01,2013-06-03 02:12:00,
2013-06-02 21:17:00,63.5,53.9,29.95,NE,34,0.0,0.0,71,0.00,,,0.00,VWS V13.01,2013-06-03 02:17:00,
2013-06-02 21:22:00,63.5,53.9,29.95,NE,54,0.0,2.2,71,0.00,,,0.00,VWS V13.01,2013-06-03 02:22:00,
2013-06-02 21:27:00,63.3,54.1,29.95,NNE,30,0.0,0.0,72,0.00,,,0.00,VWS V13.01,2013-06-03 02:27:00,
2013-06-02 21:32:00,63.3,54.1,29.95,NNE,30,0.0,0.0,72,0.00,,,0.00,VWS V13.01,2013-06-03 02:32:00,
2013-06-02 21:37:00,63.1,54.0,29.95,NNE,30,0.0,0.0,72,0.00,,,0.00,VWS V13.01,2013-06-03 02:37:00,
2013-06-02 21:42:00,62.9,54.2,29.95,NNE,30,0.0,0.0,73,0.00,,,0.00,VWS V13.01,2013-06-03 02:42:00,
2013-06-02 21:47:00,62.8,53.6,29.95,NNE,30,0.0,0.0,72,0.00,,,0.00,VWS V13.01,2013-06-03 02:47:00,
2013-06-02 21:52:00,62.2,53.8,29.95,NNE,30,0.0,0.0,74,0.00,,,0.00,VWS V13.01,2013-06-03 02:52:00,
2013-06-02 21:57:00,61.9,54.2,29.95,NNE,21,0.0,0.0,76,0.00,,,0.00,VWS V13.01,2013-06-03 02:57:00,
2013-06-02 22:02:00,61.9,54.6,29.98,NNE,21,0.0,0.0,77,0.00,,,0.00,VWS V13.01,2013-06-03 03:02:00,
2013-06-02 22:07:00,61.7,55.1,29.98,North,355,0.0,0.0,79,0.00,,,0.00,VWS V13.01,2013-06-03 03:07:00,
2013-06-02 22:12:00,61.5,54.9,29.98,North,355,0.0,0.0,79,0.00,,,0.00,VWS V13.01,2013-06-03 03:12:00,
2013-06-02 22:17:00,61.3,54.8,29.98,North,355,0.0,0.0,79,0.00,,,0.00,VWS V13.01,2013-06-03 03:17:00,
2013-06-02 22:22:00,61.1,54.6,29.98,North,355,0.0,0.0,79,0.00,,,0.00,VWS V13.01,2013-06-03 03:22:00,
2013-06-02 22:27:00,60.8,55.6,29.98,North,355,0.0,0.0,83,0.00,,,0.00,VWS V13.01,2013-06-03 03:27:00,
2013-06-02 22:32:00,60.4,55.2,29.98,NNE,18,0.0,0.0,83,0.00,,,0.00,VWS V13.01,2013-06-03 03:32:00,
2013-06-02 22:37:00,59.9,54.7,29.98,NNE,18,0.0,0.0,83,0.00,,,0.00,VWS V13.01,2013-06-03 03:37:00,
2013-06-02 22:42:00,59.3,54.8,29.98,NNE,18,0.0,0.0,85,0.00,,,0.00,VWS V13.01,2013-06-03 03:42:00,
2013-06-02 22:47:00,59.2,55.9,29.98,NNE,18,0.0,3.1,89,0.00,,,0.00,VWS V13.01,2013-06-03 03:47:00,
2013-06-02 22:52:00,59.0,56.1,29.98,NE,53,0.0,2.7,90,0.00,,,0.00,VWS V13.01,2013-06-03 03:52:00,
2013-06-02 22:57:00,59.3,54.5,29.98,NNE,30,2.7,4.0,84,0.00,,,0.00,VWS V13.01,2013-06-03 03:57:00,
2013-06-02 23:01:00,59.7,54.2,29.98,NNE,13,2.7,3.1,82,0.00,,,0.00,VWS V13.01,2013-06-03 04:01:00,
2013-06-02 23:06:00,60.1,54.2,29.98,NNE,12,2.7,3.1,81,0.00,,,0.00,VWS V13.01,2013-06-03 04:06:00,
2013-06-02 23:11:00,60.1,53.9,29.98,North,6,2.7,2.7,80,0.00,,,0.00,VWS V13.01,2013-06-03 04:11:00,
2013-06-02 23:16:00,60.1,53.5,29.98,North,6,2.2,2.7,79,0.00,,,0.00,VWS V13.01,2013-06-03 04:16:00,
2013-06-02 23:21:00,59.9,53.4,29.98,North,8,0.0,0.0,79,0.00,,,0.00,VWS V13.01,2013-06-03 04:21:00,
2013-06-02 23:26:00,59.9,53.0,29.98,North,352,0.0,0.0,78,0.00,,,0.00,VWS V13.01,2013-06-03 04:26:00,
2013-06-02 23:31:00,59.5,52.7,29.98,North,352,0.0,0.0,78,0.00,,,0.00,VWS V13.01,2013-06-03 04:31:00,
2013-06-02 23:36:00,59.2,53.0,29.98,WSW,253,0.0,0.0,80,0.00,,,0.00,VWS V13.01,2013-06-03 04:36:00,
2013-06-02 23:41:00,58.8,53.0,29.98,WSW,253,0.0,0.0,81,0.00,,,0.00,VWS V13.01,2013-06-03 04:41:00,
2013-06-02 23:46:00,58.8,54.0,29.98,WSW,253,0.0,0.0,84,0.00,,,0.00,VWS V13.01,2013-06-03 04:46:00,
2013-06-02 23:51:00,58.4,54.3,29.98,WSW,253,0.0,0.0,86,0.00,,,0.00,VWS V13.01,2013-06-03 04:51:00,
2013-06-02 23:56:00,58.1,54.5,29.98,WSW,253,0.0,0.0,88,0.00,,,0.00,VWS V13.01,2013-06-03 04:56:00,